< < Back
Terminal Aerodrome Forecast


Current Version              Previous Versions:   1  2  3  4  5  6  7  8  9  

Terminal Aerodrome Forecast

670
FTUS42 KCAE 201100
TAFAGS
TAF
KAGS 201129Z 2012/2112 05007KT P6SM FEW025
     FM201400 05012G19KT P6SM SCT035
     FM202000 05008KT P6SM SCT150
     FM210100 04003KT P6SM FEW250=

Latest METAR

619
SAUS70 KWBC 201400 RRJ
MTRAGS
METAR KAGS 201353Z 02008KT 10SM CLR 23/18 A3011 RMK AO2 SLP195
T02280178


USA.gov is the U.S. government's official web portal to all federal, state and local government web resources and services.